createdAt,value
2022-07-27T15:08:43.064Z,20.10
2022-07-27T15:11:11.410Z,20.10
2022-07-27T15:13:41.105Z,20.10
2022-07-27T15:16:09.584Z,20.10
2022-07-27T15:18:39.171Z,20.10
2022-07-27T15:21:12.845Z,20.10
2022-07-27T15:23:43.077Z,20.10
2022-07-27T15:26:11.998Z,20.10
2022-07-27T15:28:41.882Z,20.10
2022-07-27T15:31:10.285Z,20.10
2022-07-27T15:33:38.891Z,20.10
2022-07-27T15:36:07.410Z,20.10
2022-07-27T15:38:35.922Z,20.10
2022-07-27T15:41:04.304Z,20.10
2022-07-27T15:43:32.650Z,20.10
2022-07-27T15:46:02.857Z,20.10
2022-07-27T15:48:31.292Z,20.10
2022-07-27T15:50:59.693Z,20.10
2022-07-27T15:53:29.488Z,20.10
2022-07-27T15:55:58.103Z,20.00
2022-07-27T15:58:26.449Z,20.10
2022-07-27T16:00:57.532Z,20.10
2022-07-27T16:03:28.343Z,20.10
2022-07-27T16:05:58.336Z,20.10
2022-07-27T16:08:27.707Z,20.10
2022-07-27T16:10:56.137Z,20.10
2022-07-27T16:13:25.494Z,19.90
2022-07-27T16:16:11.589Z,20.10
2022-07-27T16:18:41.422Z,20.10
2022-07-27T16:21:10.062Z,20.10
2022-07-27T16:23:38.306Z,20.10
2022-07-27T16:26:08.017Z,20.10
2022-07-27T16:28:39.450Z,20.10
2022-07-27T16:31:10.343Z,20.10
2022-07-27T16:33:40.983Z,20.10
2022-07-27T16:36:09.540Z,20.10
2022-07-27T16:38:39.159Z,20.10
2022-07-27T16:41:19.172Z,20.00
2022-07-27T16:43:48.010Z,20.00
2022-07-27T16:48:46.703Z,20.10
2022-07-27T16:51:16.273Z,20.10
2022-07-27T16:53:48.069Z,20.10
2022-07-27T16:56:16.652Z,20.10
2022-07-27T16:58:45.308Z,20.10
2022-07-27T17:01:26.318Z,20.10
2022-07-27T17:03:57.206Z,20.10
2022-07-27T17:06:29.392Z,20.10
2022-07-27T17:08:57.620Z,19.80
2022-07-27T17:16:29.150Z,20.10
2022-07-27T17:18:58.893Z,20.10
2022-07-27T17:28:54.027Z,20.20
2022-07-27T17:33:51.347Z,20.20
2022-07-27T17:36:21.454Z,20.00
2022-07-27T17:38:51.163Z,20.10
2022-07-27T17:41:24.420Z,20.10
2022-07-27T17:43:53.788Z,20.10
2022-07-27T17:58:51.513Z,20.20
2022-07-27T18:06:39.046Z,20.10
2022-07-27T18:19:09.232Z,20.10
2022-07-27T18:21:39.045Z,20.20
2022-07-27T18:24:10.177Z,20.20
2022-07-27T18:34:10.873Z,20.50
2022-07-27T18:36:42.614Z,20.40
2022-07-27T18:54:08.350Z,20.70
2022-07-27T18:59:08.178Z,20.90
2022-07-27T19:04:05.521Z,20.80
2022-07-27T19:09:08.176Z,20.80
2022-07-27T19:11:36.507Z,20.60
2022-07-27T19:14:04.912Z,20.70
2022-07-27T19:16:34.112Z,20.40
2022-07-27T19:19:03.027Z,20.50
2022-07-27T19:21:32.243Z,20.30
2022-07-27T19:26:30.492Z,20.40
2022-07-27T19:31:28.398Z,20.40
2022-07-27T19:33:57.181Z,20.30
2022-07-27T19:36:25.446Z,20.30
2022-07-27T19:41:22.662Z,20.30
2022-07-27T19:43:52.323Z,20.20
2022-07-27T19:46:21.491Z,20.20
2022-07-27T19:48:49.867Z,20.10
2022-07-27T19:53:47.509Z,20.20
2022-07-27T19:56:15.948Z,20.30
2022-07-27T20:01:14.453Z,20.10
2022-07-27T20:03:52.256Z,20.10
2022-07-27T20:06:23.131Z,20.10
2022-07-27T20:08:51.388Z,20.10
2022-07-27T20:13:48.609Z,19.90
2022-07-27T20:16:18.848Z,20.10
2022-07-27T20:18:47.252Z,20.10
2022-07-27T20:21:22.632Z,20.10
2022-07-27T20:23:52.541Z,20.10
2022-07-27T20:26:21.042Z,20.10
2022-07-27T20:28:50.200Z,20.10
2022-07-27T20:31:20.262Z,20.10
2022-07-27T20:33:48.736Z,20.10
2022-07-27T20:36:17.069Z,20.10
2022-07-27T20:38:45.410Z,20.10
2022-07-27T20:41:13.776Z,20.00
2022-07-27T20:43:42.111Z,20.00
2022-07-27T20:46:10.457Z,20.00
2022-07-27T20:48:41.052Z,20.00
2022-07-27T20:51:09.395Z,20.00
2022-07-27T20:53:37.739Z,20.10
2022-07-27T20:56:06.517Z,20.00
2022-07-27T20:58:34.986Z,20.00
2022-07-27T21:01:03.380Z,20.00
2022-07-27T21:03:34.108Z,20.00
2022-07-27T21:06:04.584Z,20.00
2022-07-27T21:08:32.900Z,20.10
2022-07-27T21:11:01.235Z,20.20
2022-07-27T21:13:29.532Z,20.20
2022-07-27T21:15:57.937Z,20.30
2022-07-27T21:18:26.289Z,20.40
2022-07-27T21:20:54.730Z,20.00
2022-07-27T21:23:42.091Z,20.40
2022-07-27T21:26:10.524Z,20.50
2022-07-27T21:28:39.310Z,20.50
2022-07-27T21:31:09.611Z,20.50
2022-07-27T21:33:39.953Z,20.50
2022-07-27T21:36:08.766Z,20.80
2022-07-27T21:38:38.496Z,20.90
2022-07-27T21:41:06.818Z,20.90
2022-07-27T21:43:35.307Z,20.90
2022-07-27T21:46:03.860Z,20.80
2022-07-27T21:48:32.394Z,20.60
2022-07-27T21:51:00.700Z,20.40
2022-07-27T21:53:29.000Z,20.30
2022-07-27T21:55:59.251Z,20.30
2022-07-27T21:58:27.831Z,20.30
2022-07-27T22:00:56.300Z,20.40
2022-07-27T22:03:24.890Z,20.30
2022-07-27T22:05:53.280Z,20.30
2022-07-27T22:08:22.564Z,20.20
2022-07-27T22:10:50.946Z,20.10
2022-07-27T22:13:20.755Z,20.20
2022-07-27T22:15:49.777Z,20.20
2022-07-27T22:18:18.070Z,20.20
2022-07-27T22:20:46.374Z,20.00
2022-07-27T22:23:14.780Z,20.00
2022-07-27T22:30:41.830Z,20.20
2022-07-27T22:33:10.260Z,20.20
2022-07-27T22:38:07.104Z,20.20
2022-07-27T22:45:32.757Z,20.30
2022-07-27T22:48:02.482Z,20.20
2022-07-27T22:50:30.815Z,20.30
2022-07-27T23:00:25.331Z,20.20
2022-07-27T23:05:24.417Z,20.10
2022-07-27T23:07:53.056Z,20.10
2022-07-27T23:10:38.830Z,20.10
2022-07-27T23:13:07.178Z,20.10
2022-07-27T23:15:35.565Z,20.10
2022-07-27T23:18:03.852Z,20.00
2022-07-27T23:20:33.575Z,19.10
2022-07-27T23:23:01.910Z,19.90
2022-07-27T23:25:36.082Z,20.10
2022-07-27T23:28:05.152Z,20.10
2022-07-27T23:30:33.446Z,20.20
2022-07-27T23:33:01.779Z,20.00
2022-07-27T23:35:30.291Z,20.00
2022-07-27T23:38:00.107Z,20.00
2022-07-27T23:40:28.991Z,19.90
2022-07-27T23:52:52.118Z,19.80
2022-07-27T23:55:21.791Z,20.00
2022-07-27T23:57:50.082Z,20.00
